WetterOnline ( https://www.wetteronline.de )

Wetter aktuell Kaltennordheim

Aktuelles Wetter: Meiningen (453m)

6-stündlich | Neueste Meldungen
Ortszeit Temperatur Wetter
Mo, 23.05. 14:00 18.6° C bedeckt
Mo, 23.05. 8:00 12.7° C bedeckt
Mo, 23.05. 2:00 12.0° C wolkig
So, 22.05. 20:00 18.0° C bewölkt
So, 22.05. 14:00 16.7° C wolkig
So, 22.05. 8:00 10.2° C bewölkt
So, 22.05. 2:00 10.4° C wolkig
Sa, 21.05. 20:00 15.7° C bedeckt
Ortszeit Temperatur Wetter
Mo, 23.05. 19:00 21.1° C bedeckt
Mo, 23.05. 18:50 21.1° C bedeckt
Mo, 23.05. 18:40 20.9° C bedeckt
Mo, 23.05. 18:30 20.7° C bedeckt
Mo, 23.05. 18:20 20.7° C bedeckt
Mo, 23.05. 18:10 20.9° C bedeckt
Mo, 23.05. 18:00 20.9° C wolkig
Mo, 23.05. 17:30 21.2° C bedeckt
Mo, 23.05. 17:00 21.1° C wolkig
Mo, 23.05. 16:30 21.1° C bewölkt
Mo, 23.05. 16:00 20.6° C bedeckt
Ortszeit Relative Feuchte Sichtweite
Mo, 23.05. 14:00 61% 50 km
Mo, 23.05. 8:00 69% 40 km
Mo, 23.05. 2:00 71% 45 km
So, 22.05. 20:00 54% 55 km
So, 22.05. 14:00 56% 50 km
So, 22.05. 8:00 87% 35 km
So, 22.05. 2:00 81% 40 km
Sa, 21.05. 20:00 52% 60 km
Ortszeit Relative Feuchte Sichtweite
Mo, 23.05. 19:00 62% 55 km
Mo, 23.05. 18:50 62% -
Mo, 23.05. 18:40 63% -
Mo, 23.05. 18:30 63% 55 km
Mo, 23.05. 18:20 63% -
Mo, 23.05. 18:10 62% -
Mo, 23.05. 18:00 62% 35 km
Mo, 23.05. 17:30 61% 45 km
Mo, 23.05. 17:00 59% 65 km
Mo, 23.05. 16:30 56% 50 km
Mo, 23.05. 16:00 56% 60 km
Ortszeit Niederschlagsmenge Niederschlagsart
Mo, 23.05. 14:00 0.1 l/m2 in 6 Std. Regen
Mo, 23.05. 8:00 0.0 l/m2 in 12 Std. -
Mo, 23.05. 2:00 0.0 l/m2 in 6 Std. -
So, 22.05. 20:00 0.0 l/m2 in 12 Std. -
So, 22.05. 14:00 0.0 l/m2 in 6 Std. -
So, 22.05. 8:00 0.0 l/m2 in 12 Std. -
So, 22.05. 2:00 0.0 l/m2 in 6 Std. -
Sa, 21.05. 20:00 0.0 l/m2 in 12 Std. -
Ortszeit Niederschlagsmenge Niederschlagsart
Mo, 23.05. 19:00 0.0 l/m2 in 1 Std. -
Mo, 23.05. 18:50 keine Meldung -
Mo, 23.05. 18:40 keine Meldung -
Mo, 23.05. 18:30 0.0 l/m2 in 1 Std. -
Mo, 23.05. 18:20 keine Meldung -
Mo, 23.05. 18:10 keine Meldung -
Mo, 23.05. 18:00 0.0 l/m2 in 1 Std. -
Mo, 23.05. 17:30 0.0 l/m2 in 1 Std. -
Mo, 23.05. 17:00 0.1 l/m2 in 1 Std. Regen
Mo, 23.05. 16:30 0.1 l/m2 in 1 Std. Schneeregen
Mo, 23.05. 16:00 0.0 l/m2 in 1 Std. -
Ortszeit Stärke Spitze Richtung
km/h Bft. km/h Grad Sektor
Mo, 23.05. 14:00 14 3 29 140° SO
Mo, 23.05. 8:00 6 1 9 160° S
Mo, 23.05. 2:00 2 1 15 70° O
So, 22.05. 20:00 7 2 22 340° N
So, 22.05. 14:00 11 2 22 360° N
So, 22.05. 8:00 2 1 6 40° NO
So, 22.05. 2:00 2 1 19 10° N
Sa, 21.05. 20:00 7 2 40 280° W
Ortszeit Stärke Spitze Richtung
km/h Bft. km/h Grad Sektor
Mo, 23.05. 19:00 18 3 29 170° S
Mo, 23.05. 18:50 18 3 - 170° S
Mo, 23.05. 18:40 17 3 - 160° S
Mo, 23.05. 18:30 19 3 28 150° SO
Mo, 23.05. 18:20 19 3 - 150° SO
Mo, 23.05. 18:10 15 3 - 150° SO
Mo, 23.05. 18:00 18 3 32 140° SO
Mo, 23.05. 17:30 17 3 31 150° SO
Mo, 23.05. 17:00 18 3 32 140° SO
Mo, 23.05. 16:30 20 4 30 140° SO
Mo, 23.05. 16:00 20 4 37 150° SO
Ortszeit Untergrenze Bedeckung Gattung
total tief tief mittel hoch
Mo, 23.05. 14:00 2100 m 8/8 8/8 - - -
Mo, 23.05. 8:00 3300 m 8/8 8/8 - - -
Mo, 23.05. 2:00 4800 m 8/8 3/8 - - -
So, 22.05. 20:00 1500 m 7/8 7/8 - - -
So, 22.05. 14:00 1290 m 5/8 5/8 - - -
So, 22.05. 8:00 1500 m 7/8 7/8 - - -
So, 22.05. 2:00 3300 m 5/8 5/8 - - -
Sa, 21.05. 20:00 4200 m 8/8 8/8 - - -
Ortszeit Bedeckungsgrad in Achtel und Wolkenuntergrenze
Mo, 23.05. 19:00 1(4200m) 8(6600m) 8(10500m)
Mo, 23.05. 18:50 1(4200m) 8(6600m) 8(10500m)
Mo, 23.05. 18:40 8
Mo, 23.05. 18:30 6(4800m) 8(5400m)
Mo, 23.05. 18:20 6(4800m) 8(5400m)
Mo, 23.05. 18:10 8
Mo, 23.05. 18:00 1(1050m) 7(3900m) 8(4800m)
Mo, 23.05. 17:30 8(3600m)
Mo, 23.05. 17:00 3(1170m) 7(5100m) 7(7200m)
Mo, 23.05. 16:30 4(1230m) 8(3300m) 8(3900m)
Mo, 23.05. 16:00 8(3600m) 8(4200m)
Ortszeit Luftdruck NN (hPa) Tendenz (hPa in 3 Std.)
Mo, 23.05. 14:00 1005 - 0,7
Mo, 23.05. 8:00 1009 - 1,1
Mo, 23.05. 2:00 1012 - 0,9
So, 22.05. 20:00 1013 - 0,6
So, 22.05. 14:00 1016 - 1,2
So, 22.05. 8:00 1019 - 0,1
So, 22.05. 2:00 1020 - 1,1
Sa, 21.05. 20:00 1020 - 1,0
Ortszeit Luftdruck NN (hPa) Tendenz (hPa in 3 Std.)
Mo, 23.05. 19:00 1001 - 1,8
Mo, 23.05. 18:50 1001 keine Meldung
Mo, 23.05. 18:40 1000 keine Meldung
Mo, 23.05. 18:30 1001 - 2,3
Mo, 23.05. 18:20 1001 keine Meldung
Mo, 23.05. 18:10 1001 keine Meldung
Mo, 23.05. 18:00 1001 - 2,8
Mo, 23.05. 17:30 1001 - 2,9
Mo, 23.05. 17:00 1001 - 3,3
Mo, 23.05. 16:30 1002 - 3,0
Mo, 23.05. 16:00 1003 - 2,4
Ortszeit Schneehöhe (cm)
Mo, 23.05. 14:00 0
Mo, 23.05. 8:00 0
Mo, 23.05. 2:00 0
So, 22.05. 20:00 0
So, 22.05. 14:00 0
So, 22.05. 8:00 0
So, 22.05. 2:00 0
Sa, 21.05. 20:00 0
Ortszeit Schneehöhe (cm)
Mo, 23.05. 19:00 0
Mo, 23.05. 18:50 0
Mo, 23.05. 18:40 0
Mo, 23.05. 18:30 0
Mo, 23.05. 18:20 0
Mo, 23.05. 18:10 0
Mo, 23.05. 18:00 0
Mo, 23.05. 17:30 0
Mo, 23.05. 17:00 0
Mo, 23.05. 16:30 0
Mo, 23.05. 16:00 0
Link zu dieser Seite / Seite empfehlen

Das Wetter in ...